sensor_id;sensor_type;location;lat;lon;timestamp;temperature;humidity
30865;DHT22;17574;49.418;11.038;2023-02-15T00:00:28;1.20;98.00
30865;DHT22;17574;49.418;11.038;2023-02-15T00:02:54;1.20;98.00
30865;DHT22;17574;49.418;11.038;2023-02-15T00:05:21;1.20;98.20
30865;DHT22;17574;49.418;11.038;2023-02-15T00:07:47;1.20;98.40
30865;DHT22;17574;49.418;11.038;2023-02-15T00:10:14;1.20;98.50
30865;DHT22;17574;49.418;11.038;2023-02-15T00:12:41;1.20;98.30
30865;DHT22;17574;49.418;11.038;2023-02-15T00:15:07;1.00;98.50
30865;DHT22;17574;49.418;11.038;2023-02-15T00:17:34;1.10;98.80
30865;DHT22;17574;49.418;11.038;2023-02-15T00:20:01;0.50;98.60
30865;DHT22;17574;49.418;11.038;2023-02-15T00:22:27;1.00;98.70
30865;DHT22;17574;49.418;11.038;2023-02-15T00:24:54;1.00;98.70
30865;DHT22;17574;49.418;11.038;2023-02-15T00:27:20;1.00;98.70
30865;DHT22;17574;49.418;11.038;2023-02-15T00:29:47;1.00;98.80
30865;DHT22;17574;49.418;11.038;2023-02-15T00:32:14;1.00;98.80
30865;DHT22;17574;49.418;11.038;2023-02-15T00:34:40;0.90;98.70
30865;DHT22;17574;49.418;11.038;2023-02-15T00:37:07;0.90;98.70
30865;DHT22;17574;49.418;11.038;2023-02-15T00:39:33;0.90;98.70
30865;DHT22;17574;49.418;11.038;2023-02-15T00:42:00;0.90;98.70
30865;DHT22;17574;49.418;11.038;2023-02-15T00:44:26;0.90;98.90
30865;DHT22;17574;49.418;11.038;2023-02-15T00:46:53;0.90;98.80
30865;DHT22;17574;49.418;11.038;2023-02-15T00:49:20;0.90;98.70
30865;DHT22;17574;49.418;11.038;2023-02-15T00:51:46;0.90;98.90
30865;DHT22;17574;49.418;11.038;2023-02-15T00:54:13;1.00;98.80
30865;DHT22;17574;49.418;11.038;2023-02-15T00:56:39;1.10;98.80
30865;DHT22;17574;49.418;11.038;2023-02-15T00:59:07;1.00;98.80
30865;DHT22;17574;49.418;11.038;2023-02-15T01:01:34;1.00;98.70
30865;DHT22;17574;49.418;11.038;2023-02-15T01:04:01;1.00;98.70
30865;DHT22;17574;49.418;11.038;2023-02-15T01:06:27;1.00;98.50
30865;DHT22;17574;49.418;11.038;2023-02-15T01:08:54;1.00;97.70
30865;DHT22;17574;49.418;11.038;2023-02-15T01:11:21;1.00;97.40
30865;DHT22;17574;49.418;11.038;2023-02-15T01:13:49;1.00;97.20
30865;DHT22;17574;49.418;11.038;2023-02-15T01:16:16;1.00;97.10
30865;DHT22;17574;49.418;11.038;2023-02-15T01:18:43;1.00;97.20
30865;DHT22;17574;49.418;11.038;2023-02-15T01:21:13;1.00;97.10
30865;DHT22;17574;49.418;11.038;2023-02-15T01:23:41;0.90;96.80
30865;DHT22;17574;49.418;11.038;2023-02-15T01:26:08;0.90;96.70
30865;DHT22;17574;49.418;11.038;2023-02-15T01:28:35;0.90;96.80
30865;DHT22;17574;49.418;11.038;2023-02-15T01:31:06;0.90;97.00
30865;DHT22;17574;49.418;11.038;2023-02-15T01:33:33;0.90;96.50
30865;DHT22;17574;49.418;11.038;2023-02-15T01:36:00;0.90;96.20
30865;DHT22;17574;49.418;11.038;2023-02-15T01:38:27;0.90;96.00
30865;DHT22;17574;49.418;11.038;2023-02-15T01:40:53;0.80;96.10
30865;DHT22;17574;49.418;11.038;2023-02-15T01:43:41;0.80;96.70
30865;DHT22;17574;49.418;11.038;2023-02-15T01:46:08;0.90;97.10
30865;DHT22;17574;49.418;11.038;2023-02-15T01:48:35;0.90;97.10
30865;DHT22;17574;49.418;11.038;2023-02-15T01:51:06;0.90;96.70
30865;DHT22;17574;49.418;11.038;2023-02-15T01:53:34;0.90;96.70
30865;DHT22;17574;49.418;11.038;2023-02-15T01:56:08;1.00;96.60
30865;DHT22;17574;49.418;11.038;2023-02-15T01:58:35;1.00;95.60
30865;DHT22;17574;49.418;11.038;2023-02-15T02:01:03;0.90;95.80
30865;DHT22;17574;49.418;11.038;2023-02-15T02:03:35;0.90;95.70
30865;DHT22;17574;49.418;11.038;2023-02-15T02:06:04;1.00;95.90
30865;DHT22;17574;49.418;11.038;2023-02-15T02:08:31;1.00;96.00
30865;DHT22;17574;49.418;11.038;2023-02-15T02:10:58;1.10;95.80
30865;DHT22;17574;49.418;11.038;2023-02-15T02:13:24;1.00;95.50
30865;DHT22;17574;49.418;11.038;2023-02-15T02:15:54;1.00;95.60
30865;DHT22;17574;49.418;11.038;2023-02-15T02:31:57;0.90;95.80
30865;DHT22;17574;49.418;11.038;2023-02-15T02:34:29;0.90;95.90
30865;DHT22;17574;49.418;11.038;2023-02-15T02:37:08;0.90;95.70
30865;DHT22;17574;49.418;11.038;2023-02-15T02:39:45;0.90;95.80
30865;DHT22;17574;49.418;11.038;2023-02-15T02:42:18;0.90;95.50
30865;DHT22;17574;49.418;11.038;2023-02-15T02:44:47;0.90;95.70
30865;DHT22;17574;49.418;11.038;2023-02-15T02:47:18;0.90;95.50
30865;DHT22;17574;49.418;11.038;2023-02-15T02:49:46;0.90;95.50
30865;DHT22;17574;49.418;11.038;2023-02-15T02:54:58;0.80;95.40
30865;DHT22;17574;49.418;11.038;2023-02-15T02:57:25;0.80;95.40
30865;DHT22;17574;49.418;11.038;2023-02-15T02:59:52;0.70;95.20
30865;DHT22;17574;49.418;11.038;2023-02-15T03:02:21;0.80;95.40
30865;DHT22;17574;49.418;11.038;2023-02-15T03:04:52;0.80;95.40
30865;DHT22;17574;49.418;11.038;2023-02-15T03:07:24;0.80;95.40
30865;DHT22;17574;49.418;11.038;2023-02-15T03:09:52;0.90;95.50
30865;DHT22;17574;49.418;11.038;2023-02-15T03:12:20;0.90;95.20
30865;DHT22;17574;49.418;11.038;2023-02-15T03:14:48;0.90;94.80
30865;DHT22;17574;49.418;11.038;2023-02-15T03:17:17;0.90;94.00
30865;DHT22;17574;49.418;11.038;2023-02-15T03:19:45;0.90;93.80
30865;DHT22;17574;49.418;11.038;2023-02-15T03:22:14;0.80;93.20
30865;DHT22;17574;49.418;11.038;2023-02-15T03:24:42;0.40;93.00
30865;DHT22;17574;49.418;11.038;2023-02-15T03:27:11;0.50;93.70
30865;DHT22;17574;49.418;11.038;2023-02-15T03:29:44;0.50;94.60
30865;DHT22;17574;49.418;11.038;2023-02-15T03:32:12;0.40;95.10
30865;DHT22;17574;49.418;11.038;2023-02-15T03:34:41;0.40;95.30
30865;DHT22;17574;49.418;11.038;2023-02-15T03:39:38;0.40;95.30
30865;DHT22;17574;49.418;11.038;2023-02-15T03:44:35;0.30;95.70
30865;DHT22;17574;49.418;11.038;2023-02-15T03:47:08;0.30;96.00
30865;DHT22;17574;49.418;11.038;2023-02-15T03:49:42;0.40;96.10
30865;DHT22;17574;49.418;11.038;2023-02-15T03:52:11;0.40;95.80
30865;DHT22;17574;49.418;11.038;2023-02-15T03:54:39;0.40;95.70
30865;DHT22;17574;49.418;11.038;2023-02-15T03:57:10;0.50;95.80
30865;DHT22;17574;49.418;11.038;2023-02-15T03:59:55;0.50;95.80
30865;DHT22;17574;49.418;11.038;2023-02-15T04:02:56;0.50;95.80
30865;DHT22;17574;49.418;11.038;2023-02-15T04:05:24;0.60;95.40
30865;DHT22;17574;49.418;11.038;2023-02-15T04:07:51;0.60;95.40
30865;DHT22;17574;49.418;11.038;2023-02-15T04:10:17;0.50;95.20
30865;DHT22;17574;49.418;11.038;2023-02-15T04:13:03;0.40;95.30
30865;DHT22;17574;49.418;11.038;2023-02-15T04:15:29;0.40;95.30
30865;DHT22;17574;49.418;11.038;2023-02-15T04:18:14;0.40;95.10
30865;DHT22;17574;49.418;11.038;2023-02-15T04:20:44;0.30;95.20
30865;DHT22;17574;49.418;11.038;2023-02-15T04:23:30;0.30;95.20
30865;DHT22;17574;49.418;11.038;2023-02-15T04:26:15;0.30;95.30
30865;DHT22;17574;49.418;11.038;2023-02-15T04:28:42;0.30;95.60
30865;DHT22;17574;49.418;11.038;2023-02-15T04:31:09;0.30;96.00
30865;DHT22;17574;49.418;11.038;2023-02-15T04:33:36;0.30;96.00
30865;DHT22;17574;49.418;11.038;2023-02-15T04:36:04;0.30;96.10
30865;DHT22;17574;49.418;11.038;2023-02-15T04:38:31;0.30;95.90
30865;DHT22;17574;49.418;11.038;2023-02-15T04:40:57;0.30;95.80
30865;DHT22;17574;49.418;11.038;2023-02-15T04:43:24;0.40;95.70
30865;DHT22;17574;49.418;11.038;2023-02-15T04:45:51;0.40;95.70
30865;DHT22;17574;49.418;11.038;2023-02-15T04:48:17;0.40;95.50
30865;DHT22;17574;49.418;11.038;2023-02-15T04:50:44;0.40;95.30
30865;DHT22;17574;49.418;11.038;2023-02-15T04:53:11;0.40;95.30
30865;DHT22;17574;49.418;11.038;2023-02-15T04:55:37;0.50;95.30
30865;DHT22;17574;49.418;11.038;2023-02-15T04:58:04;0.50;95.30
30865;DHT22;17574;49.418;11.038;2023-02-15T05:00:30;0.40;95.30
30865;DHT22;17574;49.418;11.038;2023-02-15T05:02:57;0.50;95.20
30865;DHT22;17574;49.418;11.038;2023-02-15T05:05:23;0.40;94.80
30865;DHT22;17574;49.418;11.038;2023-02-15T05:07:50;0.40;94.90
30865;DHT22;17574;49.418;11.038;2023-02-15T05:10:17;0.40;94.80
30865;DHT22;17574;49.418;11.038;2023-02-15T05:12:44;0.40;94.50
30865;DHT22;17574;49.418;11.038;2023-02-15T05:15:10;0.40;94.70
30865;DHT22;17574;49.418;11.038;2023-02-15T05:17:37;0.50;94.50
30865;DHT22;17574;49.418;11.038;2023-02-15T05:20:04;0.40;94.30
30865;DHT22;17574;49.418;11.038;2023-02-15T05:22:31;0.40;94.40
30865;DHT22;17574;49.418;11.038;2023-02-15T05:24:57;0.40;94.40
30865;DHT22;17574;49.418;11.038;2023-02-15T05:27:42;0.40;94.50
30865;DHT22;17574;49.418;11.038;2023-02-15T05:30:30;0.40;94.70
30865;DHT22;17574;49.418;11.038;2023-02-15T05:32:57;0.40;94.80
30865;DHT22;17574;49.418;11.038;2023-02-15T05:35:24;0.40;94.30
30865;DHT22;17574;49.418;11.038;2023-02-15T05:37:50;0.50;93.90
30865;DHT22;17574;49.418;11.038;2023-02-15T05:40:17;0.60;93.70
30865;DHT22;17574;49.418;11.038;2023-02-15T05:42:43;0.30;93.80
30865;DHT22;17574;49.418;11.038;2023-02-15T05:45:10;0.30;94.10
30865;DHT22;17574;49.418;11.038;2023-02-15T05:47:37;0.40;94.50
30865;DHT22;17574;49.418;11.038;2023-02-15T05:50:04;0.40;94.30
30865;DHT22;17574;49.418;11.038;2023-02-15T05:52:30;0.30;94.00
30865;DHT22;17574;49.418;11.038;2023-02-15T05:54:57;0.20;93.50
30865;DHT22;17574;49.418;11.038;2023-02-15T05:57:25;0.20;93.50
30865;DHT22;17574;49.418;11.038;2023-02-15T05:59:52;0.10;93.50
30865;DHT22;17574;49.418;11.038;2023-02-15T06:02:18;0.00;93.80
30865;DHT22;17574;49.418;11.038;2023-02-15T06:04:45;0.00;94.70
30865;DHT22;17574;49.418;11.038;2023-02-15T06:07:12;0.10;95.20
30865;DHT22;17574;49.418;11.038;2023-02-15T06:09:38;0.10;94.60
30865;DHT22;17574;49.418;11.038;2023-02-15T06:12:05;0.10;95.10
30865;DHT22;17574;49.418;11.038;2023-02-15T06:14:32;0.10;95.20
30865;DHT22;17574;49.418;11.038;2023-02-15T06:16:58;0.10;95.10
30865;DHT22;17574;49.418;11.038;2023-02-15T06:19:25;0.10;95.20
30865;DHT22;17574;49.418;11.038;2023-02-15T06:21:51;0.10;95.40
30865;DHT22;17574;49.418;11.038;2023-02-15T06:24:18;0.10;95.20
30865;DHT22;17574;49.418;11.038;2023-02-15T06:26:45;0.10;94.80
30865;DHT22;17574;49.418;11.038;2023-02-15T06:29:11;0.10;95.20
30865;DHT22;17574;49.418;11.038;2023-02-15T06:31:38;0.10;95.20
30865;DHT22;17574;49.418;11.038;2023-02-15T06:34:04;0.10;95.20
30865;DHT22;17574;49.418;11.038;2023-02-15T06:36:32;0.10;94.90
30865;DHT22;17574;49.418;11.038;2023-02-15T06:38:58;0.10;95.00
30865;DHT22;17574;49.418;11.038;2023-02-15T06:41:25;0.00;94.70
30865;DHT22;17574;49.418;11.038;2023-02-15T06:43:51;0.00;95.10
30865;DHT22;17574;49.418;11.038;2023-02-15T06:46:18;0.00;95.10
30865;DHT22;17574;49.418;11.038;2023-02-15T06:48:45;0.10;95.20
30865;DHT22;17574;49.418;11.038;2023-02-15T06:51:11;0.10;95.20
30865;DHT22;17574;49.418;11.038;2023-02-15T06:53:38;0.20;95.40
30865;DHT22;17574;49.418;11.038;2023-02-15T06:56:07;0.20;95.20
30865;DHT22;17574;49.418;11.038;2023-02-15T06:58:36;0.20;95.20
30865;DHT22;17574;49.418;11.038;2023-02-15T07:01:03;0.20;95.20
30865;DHT22;17574;49.418;11.038;2023-02-15T07:03:30;0.30;94.90
30865;DHT22;17574;49.418;11.038;2023-02-15T07:05:57;0.30;94.40
30865;DHT22;17574;49.418;11.038;2023-02-15T07:08:24;0.20;93.60
30865;DHT22;17574;49.418;11.038;2023-02-15T07:10:51;0.20;93.60
30865;DHT22;17574;49.418;11.038;2023-02-15T07:13:18;0.30;93.60
30865;DHT22;17574;49.418;11.038;2023-02-15T07:15:46;0.30;93.00
30865;DHT22;17574;49.418;11.038;2023-02-15T07:18:13;0.20;93.00
30865;DHT22;17574;49.418;11.038;2023-02-15T07:20:40;0.20;93.20
30865;DHT22;17574;49.418;11.038;2023-02-15T07:23:08;0.30;93.60
30865;DHT22;17574;49.418;11.038;2023-02-15T07:25:34;0.30;92.70
30865;DHT22;17574;49.418;11.038;2023-02-15T07:28:02;0.30;92.50
30865;DHT22;17574;49.418;11.038;2023-02-15T07:30:29;0.30;93.00
30865;DHT22;17574;49.418;11.038;2023-02-15T07:32:56;0.30;93.30
30865;DHT22;17574;49.418;11.038;2023-02-15T07:35:48;0.40;93.20
30865;DHT22;17574;49.418;11.038;2023-02-15T07:38:15;0.40;93.10
30865;DHT22;17574;49.418;11.038;2023-02-15T07:40:42;0.50;92.60
30865;DHT22;17574;49.418;11.038;2023-02-15T07:43:08;0.60;92.20
30865;DHT22;17574;49.418;11.038;2023-02-15T07:45:35;0.60;92.00
30865;DHT22;17574;49.418;11.038;2023-02-15T07:48:02;0.70;90.90
30865;DHT22;17574;49.418;11.038;2023-02-15T07:50:29;0.70;90.30
30865;DHT22;17574;49.418;11.038;2023-02-15T07:52:56;0.80;89.30
30865;DHT22;17574;49.418;11.038;2023-02-15T07:55:22;0.70;86.90
30865;DHT22;17574;49.418;11.038;2023-02-15T07:57:49;0.60;86.80
30865;DHT22;17574;49.418;11.038;2023-02-15T08:00:16;0.50;86.70
30865;DHT22;17574;49.418;11.038;2023-02-15T08:02:49;0.50;87.30
30865;DHT22;17574;49.418;11.038;2023-02-15T08:05:40;0.50;88.30
30865;DHT22;17574;49.418;11.038;2023-02-15T08:08:07;0.50;89.10
30865;DHT22;17574;49.418;11.038;2023-02-15T08:10:35;0.50;88.80
30865;DHT22;17574;49.418;11.038;2023-02-15T08:13:20;0.70;88.20
30865;DHT22;17574;49.418;11.038;2023-02-15T08:15:47;0.40;89.40
30865;DHT22;17574;49.418;11.038;2023-02-15T08:18:14;0.40;90.20
30865;DHT22;17574;49.418;11.038;2023-02-15T08:20:41;0.50;90.80
30865;DHT22;17574;49.418;11.038;2023-02-15T08:23:07;0.70;90.30
30865;DHT22;17574;49.418;11.038;2023-02-15T08:25:34;0.70;88.90
30865;DHT22;17574;49.418;11.038;2023-02-15T08:28:00;0.80;87.00
30865;DHT22;17574;49.418;11.038;2023-02-15T08:30:27;0.90;85.20
30865;DHT22;17574;49.418;11.038;2023-02-15T08:32:53;1.00;83.20
30865;DHT22;17574;49.418;11.038;2023-02-15T08:35:20;1.10;82.80
30865;DHT22;17574;49.418;11.038;2023-02-15T08:37:47;1.10;79.30
30865;DHT22;17574;49.418;11.038;2023-02-15T08:40:13;0.90;77.60
30865;DHT22;17574;49.418;11.038;2023-02-15T08:42:40;0.90;79.20
30865;DHT22;17574;49.418;11.038;2023-02-15T08:45:07;0.90;79.10
30865;DHT22;17574;49.418;11.038;2023-02-15T08:47:34;0.90;78.70
30865;DHT22;17574;49.418;11.038;2023-02-15T08:50:00;1.00;79.20
30865;DHT22;17574;49.418;11.038;2023-02-15T08:52:27;1.10;79.30
30865;DHT22;17574;49.418;11.038;2023-02-15T08:54:53;1.20;79.40
30865;DHT22;17574;49.418;11.038;2023-02-15T08:57:20;1.20;78.40
30865;DHT22;17574;49.418;11.038;2023-02-15T08:59:47;1.30;78.60
30865;DHT22;17574;49.418;11.038;2023-02-15T09:02:13;1.50;74.90
30865;DHT22;17574;49.418;11.038;2023-02-15T09:04:40;1.40;71.40
30865;DHT22;17574;49.418;11.038;2023-02-15T09:07:06;1.30;71.30
30865;DHT22;17574;49.418;11.038;2023-02-15T09:09:33;1.30;71.30
30865;DHT22;17574;49.418;11.038;2023-02-15T09:12:00;1.20;71.20
30865;DHT22;17574;49.418;11.038;2023-02-15T09:14:27;1.20;72.40
30865;DHT22;17574;49.418;11.038;2023-02-15T09:16:53;1.30;73.60
30865;DHT22;17574;49.418;11.038;2023-02-15T09:19:21;1.30;72.40
30865;DHT22;17574;49.418;11.038;2023-02-15T09:21:48;1.30;73.30
30865;DHT22;17574;49.418;11.038;2023-02-15T09:24:15;1.40;71.40
30865;DHT22;17574;49.418;11.038;2023-02-15T09:26:43;1.40;71.40
30865;DHT22;17574;49.418;11.038;2023-02-15T09:29:10;1.40;71.40
30865;DHT22;17574;49.418;11.038;2023-02-15T09:31:38;1.40;71.40
30865;DHT22;17574;49.418;11.038;2023-02-15T09:34:05;1.40;71.40
30865;DHT22;17574;49.418;11.038;2023-02-15T09:36:33;1.80;69.90
30865;DHT22;17574;49.418;11.038;2023-02-15T09:44:16;1.50;71.50
30865;DHT22;17574;49.418;11.038;2023-02-15T09:47:01;1.50;71.50
30865;DHT22;17574;49.418;11.038;2023-02-15T09:49:45;1.70;71.60
30865;DHT22;17574;49.418;11.038;2023-02-15T09:52:37;1.90;70.70
30865;DHT22;17574;49.418;11.038;2023-02-15T09:55:13;2.10;67.20
30865;DHT22;17574;49.418;11.038;2023-02-15T10:00:23;2.40;62.60
30865;DHT22;17574;49.418;11.038;2023-02-15T10:05:49;2.60;56.50
30865;DHT22;17574;49.418;11.038;2023-02-15T10:08:35;2.60;56.70
30865;DHT22;17574;49.418;11.038;2023-02-15T10:16:46;2.50;54.30
30865;DHT22;17574;49.418;11.038;2023-02-15T10:19:34;2.70;54.50
30865;DHT22;17574;49.418;11.038;2023-02-15T10:24:36;2.70;54.50
30865;DHT22;17574;49.418;11.038;2023-02-15T10:27:13;2.70;53.10
30865;DHT22;17574;49.418;11.038;2023-02-15T10:30:02;2.70;51.90
30865;DHT22;17574;49.418;11.038;2023-02-15T10:32:27;2.70;52.90
30865;DHT22;17574;49.418;11.038;2023-02-15T10:35:00;2.70;52.60
30865;DHT22;17574;49.418;11.038;2023-02-15T10:40:24;2.60;56.60
30865;DHT22;17574;49.418;11.038;2023-02-15T10:43:07;2.80;54.60
30865;DHT22;17574;49.418;11.038;2023-02-15T10:45:40;2.80;51.90
30865;DHT22;17574;49.418;11.038;2023-02-15T10:50:51;3.10;49.70
30865;DHT22;17574;49.418;11.038;2023-02-15T10:53:31;2.90;48.20
30865;DHT22;17574;49.418;11.038;2023-02-15T11:01:05;4.10;41.20
30865;DHT22;17574;49.418;11.038;2023-02-15T11:03:58;4.40;38.60
30865;DHT22;17574;49.418;11.038;2023-02-15T11:06:27;4.40;32.20
30865;DHT22;17574;49.418;11.038;2023-02-15T11:08:56;4.60;30.20
30865;DHT22;17574;49.418;11.038;2023-02-15T11:13:59;4.50;30.20
30865;DHT22;17574;49.418;11.038;2023-02-15T11:16:28;4.30;29.50
30865;DHT22;17574;49.418;11.038;2023-02-15T11:18:59;4.30;31.80
30865;DHT22;17574;49.418;11.038;2023-02-15T11:21:28;4.10;34.30
30865;DHT22;17574;49.418;11.038;2023-02-15T11:23:55;4.30;33.20
30865;DHT22;17574;49.418;11.038;2023-02-15T11:26:30;4.30;34.60
30865;DHT22;17574;49.418;11.038;2023-02-15T11:29:11;4.40;31.00
30865;DHT22;17574;49.418;11.038;2023-02-15T11:31:47;4.10;33.70
30865;DHT22;17574;49.418;11.038;2023-02-15T11:34:20;4.20;34.60
30865;DHT22;17574;49.418;11.038;2023-02-15T11:36:48;4.20;34.60
30865;DHT22;17574;49.418;11.038;2023-02-15T11:39:17;4.40;35.50
30865;DHT22;17574;49.418;11.038;2023-02-15T11:41:45;4.70;31.50
30865;DHT22;17574;49.418;11.038;2023-02-15T11:46:40;5.10;29.90
30865;DHT22;17574;49.418;11.038;2023-02-15T11:49:18;5.10;27.50
30865;DHT22;17574;49.418;11.038;2023-02-15T11:51:47;5.20;26.20
30865;DHT22;17574;49.418;11.038;2023-02-15T11:54:13;5.50;24.20
30865;DHT22;17574;49.418;11.038;2023-02-15T11:56:40;5.70;23.20
30865;DHT22;17574;49.418;11.038;2023-02-15T11:59:10;5.90;20.80
30865;DHT22;17574;49.418;11.038;2023-02-15T12:01:40;6.10;19.70
30865;DHT22;17574;49.418;11.038;2023-02-15T12:06:44;6.80;17.70
30865;DHT22;17574;49.418;11.038;2023-02-15T12:14:46;7.40;10.30
30865;DHT22;17574;49.418;11.038;2023-02-15T12:17:13;7.30;8.70
30865;DHT22;17574;49.418;11.038;2023-02-15T12:19:40;7.30;9.40
30865;DHT22;17574;49.418;11.038;2023-02-15T12:22:17;7.30;9.90
30865;DHT22;17574;49.418;11.038;2023-02-15T12:24:45;7.50;8.90
30865;DHT22;17574;49.418;11.038;2023-02-15T12:27:16;8.10;4.50
30865;DHT22;17574;49.418;11.038;2023-02-15T12:29:46;9.30;1.40
30865;DHT22;17574;49.418;11.038;2023-02-15T12:32:22;10.10;1.00
30865;DHT22;17574;49.418;11.038;2023-02-15T12:34:50;10.90;1.00
30865;DHT22;17574;49.418;11.038;2023-02-15T12:37:18;11.70;1.00
30865;DHT22;17574;49.418;11.038;2023-02-15T12:39:55;12.60;1.00
30865;DHT22;17574;49.418;11.038;2023-02-15T12:42:23;13.30;1.00
30865;DHT22;17574;49.418;11.038;2023-02-15T12:47:20;14.20;1.00
30865;DHT22;17574;49.418;11.038;2023-02-15T12:50:10;14.90;1.00
30865;DHT22;17574;49.418;11.038;2023-02-15T12:52:44;15.50;1.00
30865;DHT22;17574;49.418;11.038;2023-02-15T12:55:31;16.10;1.00
30865;DHT22;17574;49.418;11.038;2023-02-15T12:58:07;15.90;1.00
30865;DHT22;17574;49.418;11.038;2023-02-15T13:00:34;16.60;1.00
30865;DHT22;17574;49.418;11.038;2023-02-15T13:03:01;17.30;1.00
30865;DHT22;17574;49.418;11.038;2023-02-15T13:10:54;16.60;1.00
30865;DHT22;17574;49.418;11.038;2023-02-15T13:13:26;16.80;1.00
30865;DHT22;17574;49.418;11.038;2023-02-15T13:15:54;16.30;1.00
30865;DHT22;17574;49.418;11.038;2023-02-15T13:18:34;16.40;1.00
30865;DHT22;17574;49.418;11.038;2023-02-15T13:21:21;16.50;1.00
30865;DHT22;17574;49.418;11.038;2023-02-15T13:23:52;16.30;1.00
30865;DHT22;17574;49.418;11.038;2023-02-15T13:26:21;15.80;1.00
30865;DHT22;17574;49.418;11.038;2023-02-15T13:28:49;15.90;1.00
30865;DHT22;17574;49.418;11.038;2023-02-15T13:31:19;15.60;1.00
30865;DHT22;17574;49.418;11.038;2023-02-15T13:33:48;15.50;1.00
30865;DHT22;17574;49.418;11.038;2023-02-15T13:38:48;14.70;1.00
30865;DHT22;17574;49.418;11.038;2023-02-15T13:41:20;14.40;1.00
30865;DHT22;17574;49.418;11.038;2023-02-15T13:49:12;14.30;1.00
30865;DHT22;17574;49.418;11.038;2023-02-15T13:51:52;14.80;1.00
30865;DHT22;17574;49.418;11.038;2023-02-15T13:54:33;15.00;1.00
30865;DHT22;17574;49.418;11.038;2023-02-15T13:57:05;15.10;1.00
30865;DHT22;17574;49.418;11.038;2023-02-15T14:04:48;14.00;1.00
30865;DHT22;17574;49.418;11.038;2023-02-15T14:07:33;13.60;1.00
30865;DHT22;17574;49.418;11.038;2023-02-15T14:17:50;12.50;1.00
30865;DHT22;17574;49.418;11.038;2023-02-15T14:25:52;12.20;1.00
30865;DHT22;17574;49.418;11.038;2023-02-15T14:31:14;12.10;1.00
30865;DHT22;17574;49.418;11.038;2023-02-15T14:34:03;12.10;1.00
30865;DHT22;17574;49.418;11.038;2023-02-15T14:36:30;12.00;1.00
30865;DHT22;17574;49.418;11.038;2023-02-15T14:41:28;12.00;1.00
30865;DHT22;17574;49.418;11.038;2023-02-15T14:49:12;12.00;1.00
30865;DHT22;17574;49.418;11.038;2023-02-15T14:54:07;11.60;1.00
30865;DHT22;17574;49.418;11.038;2023-02-15T14:56:33;11.40;1.00
30865;DHT22;17574;49.418;11.038;2023-02-15T14:59:11;11.10;1.00
30865;DHT22;17574;49.418;11.038;2023-02-15T15:01:39;10.90;1.00
30865;DHT22;17574;49.418;11.038;2023-02-15T15:04:08;11.00;1.00
30865;DHT22;17574;49.418;11.038;2023-02-15T15:06:36;10.90;1.00
30865;DHT22;17574;49.418;11.038;2023-02-15T15:09:20;10.60;1.00
30865;DHT22;17574;49.418;11.038;2023-02-15T15:11:48;10.70;1.00
30865;DHT22;17574;49.418;11.038;2023-02-15T15:14:58;10.60;1.00
30865;DHT22;17574;49.418;11.038;2023-02-15T15:17:05;10.50;1.00
30865;DHT22;17574;49.418;11.038;2023-02-15T15:22:21;10.30;1.00
30865;DHT22;17574;49.418;11.038;2023-02-15T15:24:49;10.30;1.00
30865;DHT22;17574;49.418;11.038;2023-02-15T15:30:26;9.90;1.00
30865;DHT22;17574;49.418;11.038;2023-02-15T15:35:24;9.70;1.00
30865;DHT22;17574;49.418;11.038;2023-02-15T15:40:41;9.20;1.00
30865;DHT22;17574;49.418;11.038;2023-02-15T15:48:35;8.90;1.00
30865;DHT22;17574;49.418;11.038;2023-02-15T15:51:06;8.60;1.00
30865;DHT22;17574;49.418;11.038;2023-02-15T15:53:37;8.80;1.80
30865;DHT22;17574;49.418;11.038;2023-02-15T15:56:07;8.20;3.80
30865;DHT22;17574;49.418;11.038;2023-02-15T15:58:36;8.20;4.60
30865;DHT22;17574;49.418;11.038;2023-02-15T16:01:07;7.80;6.30
30865;DHT22;17574;49.418;11.038;2023-02-15T16:03:35;7.70;8.00
30865;DHT22;17574;49.418;11.038;2023-02-15T16:06:02;7.70;8.60
30865;DHT22;17574;49.418;11.038;2023-02-15T16:10:56;7.40;10.60
30865;DHT22;17574;49.418;11.038;2023-02-15T16:13:22;7.20;11.70
30865;DHT22;17574;49.418;11.038;2023-02-15T16:15:50;7.00;13.30
30865;DHT22;17574;49.418;11.038;2023-02-15T16:18:20;6.80;15.80
30865;DHT22;17574;49.418;11.038;2023-02-15T16:20:51;6.50;17.60
30865;DHT22;17574;49.418;11.038;2023-02-15T16:28:36;6.10;22.50
30865;DHT22;17574;49.418;11.038;2023-02-15T16:31:13;5.90;24.00
30865;DHT22;17574;49.418;11.038;2023-02-15T16:33:40;5.70;26.00
30865;DHT22;17574;49.418;11.038;2023-02-15T16:39:13;5.40;28.30
30865;DHT22;17574;49.418;11.038;2023-02-15T16:41:43;5.30;29.30
30865;DHT22;17574;49.418;11.038;2023-02-15T16:44:15;5.10;31.80
30865;DHT22;17574;49.418;11.038;2023-02-15T16:46:43;5.00;35.30
30865;DHT22;17574;49.418;11.038;2023-02-15T16:51:43;4.70;37.70
30865;DHT22;17574;49.418;11.038;2023-02-15T16:54:18;4.60;40.00
30865;DHT22;17574;49.418;11.038;2023-02-15T16:56:45;4.40;41.70
30865;DHT22;17574;49.418;11.038;2023-02-15T17:02:19;4.20;45.50
30865;DHT22;17574;49.418;11.038;2023-02-15T17:07:34;4.10;47.00
30865;DHT22;17574;49.418;11.038;2023-02-15T17:10:15;4.00;48.20
30865;DHT22;17574;49.418;11.038;2023-02-15T17:12:52;3.90;50.40
30865;DHT22;17574;49.418;11.038;2023-02-15T17:17:51;3.80;53.30
30865;DHT22;17574;49.418;11.038;2023-02-15T17:20:18;3.70;55.40
30865;DHT22;17574;49.418;11.038;2023-02-15T17:22:45;3.60;55.30
30865;DHT22;17574;49.418;11.038;2023-02-15T17:25:18;3.50;56.50
30865;DHT22;17574;49.418;11.038;2023-02-15T17:27:50;3.40;58.60
30865;DHT22;17574;49.418;11.038;2023-02-15T17:30:20;3.30;60.90
30865;DHT22;17574;49.418;11.038;2023-02-15T17:32:58;3.20;62.40
30865;DHT22;17574;49.418;11.038;2023-02-15T17:35:26;3.20;63.10
30865;DHT22;17574;49.418;11.038;2023-02-15T17:38:03;3.10;64.30
30865;DHT22;17574;49.418;11.038;2023-02-15T17:40:34;3.00;64.50
30865;DHT22;17574;49.418;11.038;2023-02-15T17:43:01;2.90;68.30
30865;DHT22;17574;49.418;11.038;2023-02-15T17:45:35;2.80;70.20
30865;DHT22;17574;49.418;11.038;2023-02-15T17:48:03;2.70;72.40
30865;DHT22;17574;49.418;11.038;2023-02-15T17:50:30;2.60;72.80
30865;DHT22;17574;49.418;11.038;2023-02-15T17:52:57;2.50;74.90
30865;DHT22;17574;49.418;11.038;2023-02-15T17:55:24;2.40;76.30
30865;DHT22;17574;49.418;11.038;2023-02-15T17:58:15;2.40;78.00
30865;DHT22;17574;49.418;11.038;2023-02-15T18:00:43;2.20;81.70
30865;DHT22;17574;49.418;11.038;2023-02-15T18:03:32;2.10;84.10
30865;DHT22;17574;49.418;11.038;2023-02-15T18:06:18;2.00;88.00
30865;DHT22;17574;49.418;11.038;2023-02-15T18:09:03;2.00;89.60
30865;DHT22;17574;49.418;11.038;2023-02-15T18:11:49;2.00;90.40
30865;DHT22;17574;49.418;11.038;2023-02-15T18:14:16;2.00;91.10
30865;DHT22;17574;49.418;11.038;2023-02-15T18:16:43;2.00;91.10
30865;DHT22;17574;49.418;11.038;2023-02-15T18:21:41;1.80;91.60